createdAt,value
2023-03-03T00:02:20.532Z,52.15
2023-03-03T00:04:47.696Z,57.22
2023-03-03T00:07:21.837Z,56.40
2023-03-03T00:09:52.781Z,54.20
2023-03-03T00:12:26.980Z,59.60
2023-03-03T00:14:54.849Z,53.75
2023-03-03T00:17:27.988Z,55.00
2023-03-03T00:19:55.927Z,51.30
2023-03-03T00:22:37.686Z,55.95
2023-03-03T00:25:34.789Z,54.40
2023-03-03T00:28:30.488Z,54.28
2023-03-03T00:31:03.609Z,52.83
2023-03-03T00:33:33.778Z,53.42
2023-03-03T00:36:31.834Z,56.63
2023-03-03T00:39:25.020Z,65.60
2023-03-03T00:41:52.291Z,51.30
2023-03-03T00:44:32.382Z,54.78
2023-03-03T00:47:14.128Z,55.35
2023-03-03T00:49:43.115Z,54.85
2023-03-03T00:52:18.714Z,57.80
2023-03-03T00:54:46.742Z,64.82
2023-03-03T00:57:13.936Z,52.33
2023-03-03T00:59:41.127Z,57.75
2023-03-03T01:02:08.194Z,59.47
2023-03-03T01:04:35.302Z,56.25
2023-03-03T01:07:02.525Z,55.22
2023-03-03T01:09:29.717Z,52.42
2023-03-03T01:12:00.555Z,55.83
2023-03-03T01:14:27.863Z,50.65
2023-03-03T01:17:00.612Z,48.00
2023-03-03T01:19:27.664Z,50.83
2023-03-03T01:21:58.101Z,60.00
2023-03-03T01:24:25.393Z,52.85
2023-03-03T01:26:52.705Z,54.03
2023-03-03T01:29:19.831Z,57.17
2023-03-03T01:31:47.218Z,51.13
2023-03-03T01:34:16.910Z,48.15
2023-03-03T01:36:44.014Z,53.47
2023-03-03T01:39:12.561Z,52.85
2023-03-03T01:41:39.698Z,54.88
2023-03-03T01:44:07.128Z,56.47
2023-03-03T01:46:49.333Z,47.75
2023-03-03T01:49:32.543Z,56.70
2023-03-03T01:52:02.967Z,50.13
2023-03-03T01:54:45.626Z,55.85
2023-03-03T02:00:24.304Z,55.90
2023-03-03T02:00:45.248Z,54.28
2023-03-03T02:02:53.185Z,53.92
2023-03-03T02:06:17.468Z,55.60
2023-03-03T02:08:59.906Z,54.88
2023-03-03T02:11:30.041Z,59.60
2023-03-03T02:14:02.505Z,55.90
2023-03-03T02:16:30.214Z,56.88
2023-03-03T02:18:57.703Z,53.50
2023-03-03T02:21:29.219Z,54.13
2023-03-03T02:24:33.761Z,56.45
2023-03-03T02:27:01.148Z,51.25
2023-03-03T02:29:28.291Z,54.75
2023-03-03T02:32:01.090Z,53.97
2023-03-03T02:34:47.276Z,48.80
2023-03-03T02:37:18.928Z,59.75
2023-03-03T02:39:46.386Z,56.00
2023-03-03T02:42:17.223Z,54.08
2023-03-03T02:44:44.475Z,57.78
2023-03-03T02:47:11.726Z,53.22
2023-03-03T02:49:39.638Z,57.20
2023-03-03T02:52:12.567Z,51.72
2023-03-03T02:54:42.978Z,55.97
2023-03-03T02:57:10.263Z,49.42
2023-03-03T02:59:37.719Z,64.43
2023-03-03T03:02:04.872Z,54.03
2023-03-03T03:04:32.330Z,56.83
2023-03-03T03:07:00.403Z,52.80
2023-03-03T03:09:28.637Z,55.30
2023-03-03T03:11:55.880Z,55.67
2023-03-03T03:14:24.046Z,57.42
2023-03-03T03:16:53.821Z,55.60
2023-03-03T03:19:21.706Z,51.20
2023-03-03T03:21:48.717Z,55.35
2023-03-03T03:24:15.984Z,54.80
2023-03-03T03:26:43.128Z,52.42
2023-03-03T03:29:12.639Z,45.67
2023-03-03T03:31:39.679Z,52.00
2023-03-03T03:34:06.897Z,50.20
2023-03-03T03:36:33.990Z,51.58
2023-03-03T03:39:03.079Z,54.20
2023-03-03T03:41:30.171Z,57.00
2023-03-03T03:43:57.530Z,51.35
2023-03-03T03:46:24.623Z,51.40
2023-03-03T03:48:51.705Z,62.78
2023-03-03T03:51:18.645Z,52.20
2023-03-03T03:53:45.762Z,54.58
2023-03-03T03:56:12.837Z,49.08
2023-03-03T03:58:42.131Z,50.50
2023-03-03T04:01:09.578Z,52.03
2023-03-03T04:03:36.776Z,48.38
2023-03-03T04:06:03.904Z,52.63
2023-03-03T04:08:31.208Z,50.83
2023-03-03T04:10:58.190Z,47.88
2023-03-03T04:13:28.627Z,47.88
2023-03-03T04:15:55.734Z,50.92
2023-03-03T04:18:22.988Z,57.50
2023-03-03T04:20:52.424Z,47.72
2023-03-03T04:23:23.998Z,51.50
2023-03-03T04:25:51.416Z,58.80
2023-03-03T04:28:18.955Z,52.17
2023-03-03T04:30:46.117Z,51.85
2023-03-03T04:33:13.133Z,51.33
2023-03-03T04:35:40.590Z,64.82
2023-03-03T04:38:07.831Z,45.20
2023-03-03T04:40:34.811Z,57.60
2023-03-03T04:43:01.983Z,50.25
2023-03-03T04:45:29.191Z,53.25
2023-03-03T04:47:56.294Z,54.85
2023-03-03T04:50:23.210Z,48.70
2023-03-03T04:52:50.386Z,51.28
2023-03-03T04:55:17.447Z,54.30
2023-03-03T04:57:44.810Z,51.20
2023-03-03T05:00:13.719Z,52.95
2023-03-03T05:02:41.391Z,59.30
2023-03-03T05:05:10.804Z,53.00
2023-03-03T05:07:38.004Z,57.17
2023-03-03T05:10:08.439Z,49.92
2023-03-03T05:12:35.562Z,62.15
2023-03-03T05:15:02.860Z,64.03
2023-03-03T05:17:30.086Z,59.35
2023-03-03T05:19:57.399Z,58.83
2023-03-03T05:22:24.731Z,56.78
2023-03-03T05:24:52.034Z,53.95
2023-03-03T05:27:19.074Z,48.38
2023-03-03T05:29:46.779Z,57.22
2023-03-03T05:32:13.849Z,51.10
2023-03-03T05:34:41.057Z,51.97
2023-03-03T05:37:08.001Z,58.47
2023-03-03T05:39:35.720Z,51.72
2023-03-03T05:42:05.154Z,55.05
2023-03-03T05:44:32.149Z,60.92
2023-03-03T05:46:59.307Z,54.67
2023-03-03T05:49:27.072Z,62.80
2023-03-03T05:51:54.106Z,56.40
2023-03-03T05:54:21.428Z,61.13
2023-03-03T05:56:48.547Z,59.03
2023-03-03T05:59:15.560Z,60.78
2023-03-03T06:01:42.566Z,56.00
2023-03-03T06:04:10.069Z,56.90
2023-03-03T06:06:37.376Z,57.88
2023-03-03T06:09:04.918Z,63.13
2023-03-03T06:11:32.146Z,60.25
2023-03-03T06:13:59.286Z,57.70
2023-03-03T06:16:26.397Z,60.42
2023-03-03T06:18:53.579Z,58.72
2023-03-03T06:21:20.458Z,61.75
2023-03-03T06:23:47.575Z,61.65
2023-03-03T06:26:14.602Z,57.78
2023-03-03T06:28:41.539Z,67.30
2023-03-03T06:31:08.509Z,67.68
2023-03-03T06:33:35.781Z,62.15
2023-03-03T06:36:05.376Z,62.03
2023-03-03T06:38:32.736Z,64.20
2023-03-03T06:41:04.622Z,58.35
2023-03-03T06:43:31.488Z,63.58
2023-03-03T06:45:58.477Z,58.50
2023-03-03T06:48:25.548Z,63.83
2023-03-03T06:50:57.952Z,65.03
2023-03-03T06:53:26.661Z,59.70
2023-03-03T06:55:54.877Z,58.70
2023-03-03T06:58:22.835Z,62.88
2023-03-03T07:01:01.757Z,64.60
2023-03-03T07:03:36.769Z,64.07
2023-03-03T07:06:16.953Z,57.50
2023-03-03T07:08:46.825Z,64.32
2023-03-03T07:11:18.750Z,62.70
2023-03-03T07:13:52.104Z,65.45
2023-03-03T07:16:26.537Z,59.13
2023-03-03T07:19:04.014Z,64.13
2023-03-03T07:21:42.024Z,62.90
2023-03-03T07:24:30.474Z,61.35
2023-03-03T07:27:11.336Z,55.90
2023-03-03T07:29:41.422Z,68.82
2023-03-03T07:32:37.896Z,65.90
2023-03-03T07:35:28.492Z,67.18
2023-03-03T07:37:55.672Z,61.65
2023-03-03T07:40:31.818Z,61.15
2023-03-03T07:42:58.855Z,62.50
2023-03-03T07:45:31.385Z,63.70
2023-03-03T07:48:24.042Z,55.30
2023-03-03T07:50:52.101Z,62.90
2023-03-03T07:53:38.244Z,63.65
2023-03-03T07:56:23.763Z,59.53
2023-03-03T07:58:50.682Z,68.40
2023-03-03T08:01:43.609Z,67.88
2023-03-03T08:04:44.444Z,63.95
2023-03-03T08:07:17.695Z,65.13
2023-03-03T08:09:48.144Z,61.38
2023-03-03T08:12:47.448Z,61.72
2023-03-03T08:15:25.404Z,69.25
2023-03-03T08:17:59.397Z,54.65
2023-03-03T08:20:35.428Z,65.03
2023-03-03T08:23:02.387Z,61.80
2023-03-03T08:25:29.536Z,63.30
2023-03-03T08:27:56.416Z,61.83
2023-03-03T08:30:26.317Z,61.90
2023-03-03T08:32:53.233Z,66.75
2023-03-03T08:35:20.085Z,63.03
2023-03-03T08:37:46.971Z,61.00
2023-03-03T08:40:15.208Z,60.78
2023-03-03T08:42:50.349Z,58.92
2023-03-03T08:45:17.226Z,63.05
2023-03-03T08:47:44.928Z,59.60
2023-03-03T08:50:13.648Z,60.85
2023-03-03T08:52:40.834Z,58.75
2023-03-03T08:55:08.862Z,76.60
2023-03-03T08:57:36.354Z,65.35
2023-03-03T09:00:03.432Z,58.28
2023-03-03T09:02:30.304Z,61.75
2023-03-03T09:04:57.094Z,76.03
2023-03-03T09:07:24.112Z,65.18
2023-03-03T09:09:51.002Z,62.33
2023-03-03T09:12:34.247Z,65.57
2023-03-03T09:15:19.390Z,70.20
2023-03-03T09:17:47.108Z,61.25
2023-03-03T09:20:39.456Z,63.55
2023-03-03T09:23:37.585Z,65.18
2023-03-03T09:26:13.632Z,64.65
2023-03-03T09:28:40.462Z,68.35
2023-03-03T09:31:24.202Z,57.90
2023-03-03T09:33:52.013Z,57.75
2023-03-03T09:36:38.790Z,61.60
2023-03-03T09:39:20.045Z,61.00
2023-03-03T09:42:05.482Z,58.25
2023-03-03T09:44:51.317Z,56.50
2023-03-03T09:47:39.121Z,63.25
2023-03-03T09:50:05.880Z,69.15
2023-03-03T09:52:57.656Z,62.80
2023-03-03T09:55:45.498Z,59.42
2023-03-03T09:58:24.299Z,59.28
2023-03-03T10:00:56.168Z,59.30
2023-03-03T10:03:53.332Z,64.28
2023-03-03T10:06:31.805Z,61.92
2023-03-03T10:10:00.091Z,63.72
2023-03-03T10:12:39.456Z,59.97
2023-03-03T10:15:30.441Z,63.85
2023-03-03T10:18:18.789Z,60.08
2023-03-03T10:21:03.713Z,59.63
2023-03-03T10:23:48.589Z,59.60
2023-03-03T10:27:09.908Z,64.50
2023-03-03T10:30:14.310Z,58.90
2023-03-03T10:32:57.132Z,62.40
2023-03-03T10:35:33.229Z,59.47
2023-03-03T10:38:14.959Z,69.93
2023-03-03T10:41:08.380Z,63.17
2023-03-03T10:43:41.203Z,57.95
2023-03-03T10:46:34.296Z,65.20
2023-03-03T10:49:01.123Z,61.58
2023-03-03T10:51:41.894Z,58.25
2023-03-03T10:54:21.699Z,62.42
2023-03-03T10:56:54.734Z,67.93
2023-03-03T10:59:33.814Z,64.75
2023-03-03T11:02:17.602Z,66.63
2023-03-03T11:04:47.787Z,65.93
2023-03-03T11:07:47.042Z,60.20
2023-03-03T11:10:19.936Z,65.13
2023-03-03T11:13:03.908Z,57.42
2023-03-03T11:15:42.363Z,58.38
2023-03-03T11:18:16.043Z,61.00
2023-03-03T11:21:09.630Z,60.63
2023-03-03T11:24:20.568Z,64.10
2023-03-03T11:27:05.991Z,59.03
2023-03-03T11:29:44.580Z,58.83
2023-03-03T11:32:11.366Z,65.10
2023-03-03T11:34:50.467Z,61.92
2023-03-03T11:37:41.068Z,62.53
2023-03-03T11:40:32.732Z,60.33
2023-03-03T11:43:11.815Z,60.95
2023-03-03T11:45:49.840Z,59.85
2023-03-03T11:48:19.924Z,63.17
2023-03-03T11:51:01.009Z,63.33
2023-03-03T11:53:41.216Z,65.93
2023-03-03T11:56:23.627Z,67.30
2023-03-03T11:59:07.848Z,64.20
2023-03-03T12:01:47.073Z,62.65
2023-03-03T12:04:22.349Z,61.88
2023-03-03T12:07:19.086Z,58.38
2023-03-03T12:10:17.514Z,59.85
2023-03-03T12:12:51.409Z,56.65
2023-03-03T12:15:45.657Z,63.90
2023-03-03T12:18:21.898Z,61.08
2023-03-03T12:21:03.907Z,65.10
2023-03-03T12:23:50.618Z,65.77
2023-03-03T12:26:27.282Z,55.38
2023-03-03T12:29:04.013Z,69.87
2023-03-03T12:31:53.729Z,65.73
2023-03-03T12:34:50.713Z,70.03
2023-03-03T12:37:32.134Z,52.10
2023-03-03T12:40:08.644Z,54.70
2023-03-03T12:43:03.736Z,59.00
2023-03-03T12:45:43.724Z,56.90
2023-03-03T12:48:21.846Z,63.40
2023-03-03T12:51:28.755Z,58.17
2023-03-03T12:54:19.119Z,56.83
2023-03-03T12:57:06.252Z,54.73
2023-03-03T12:59:54.265Z,58.17
2023-03-03T13:02:51.266Z,65.27
2023-03-03T13:05:40.601Z,57.17
2023-03-03T13:08:22.326Z,52.97
2023-03-03T13:11:02.085Z,55.67
2023-03-03T13:13:52.631Z,56.60
2023-03-03T13:16:42.039Z,55.87
2023-03-03T13:19:18.727Z,59.87
2023-03-03T13:21:59.861Z,55.60
2023-03-03T13:24:49.875Z,60.47
2023-03-03T13:27:23.218Z,60.07
2023-03-03T13:29:59.073Z,61.43
2023-03-03T13:32:43.995Z,66.90
2023-03-03T13:35:41.266Z,53.53
2023-03-03T13:38:14.522Z,53.50
2023-03-03T13:40:49.829Z,53.53
2023-03-03T13:43:26.734Z,55.20
2023-03-03T13:45:59.524Z,56.17
2023-03-03T13:48:52.628Z,55.00
2023-03-03T13:51:43.154Z,49.90
2023-03-03T13:54:28.757Z,61.87
2023-03-03T13:57:22.957Z,54.53
2023-03-03T14:00:13.901Z,53.00
2023-03-03T14:03:02.337Z,51.87
2023-03-03T14:05:52.872Z,47.80
2023-03-03T14:08:46.367Z,49.30
2023-03-03T14:11:51.064Z,56.80
2023-03-03T14:14:39.266Z,53.37
2023-03-03T14:17:15.174Z,54.83
2023-03-03T14:19:48.879Z,56.30
2023-03-03T14:22:24.173Z,48.13
2023-03-03T14:25:15.620Z,48.57
2023-03-03T14:27:48.764Z,48.23
2023-03-03T14:30:32.959Z,48.27
2023-03-03T14:33:09.387Z,56.60
2023-03-03T14:35:40.648Z,48.93
2023-03-03T14:38:16.428Z,54.80
2023-03-03T14:40:45.666Z,47.03
2023-03-03T14:43:34.287Z,53.93
2023-03-03T14:46:31.368Z,51.43
2023-03-03T14:49:00.791Z,48.70
2023-03-03T14:51:37.879Z,46.30
2023-03-03T14:54:13.829Z,51.03
2023-03-03T14:56:58.165Z,49.60
2023-03-03T14:59:27.084Z,49.90
2023-03-03T15:02:18.901Z,52.50
2023-03-03T15:04:47.013Z,48.63
2023-03-03T15:07:33.391Z,52.57
2023-03-03T15:10:00.335Z,51.80
2023-03-03T15:12:39.869Z,51.83
2023-03-03T15:15:07.707Z,52.30
2023-03-03T15:18:02.772Z,49.07
2023-03-03T15:20:50.964Z,49.47
2023-03-03T15:23:55.138Z,54.20
2023-03-03T15:26:43.817Z,51.27
2023-03-03T15:29:41.894Z,52.17
2023-03-03T15:32:34.204Z,52.73
2023-03-03T15:35:26.302Z,48.67
2023-03-03T15:38:14.810Z,48.33
2023-03-03T15:40:49.551Z,52.60
2023-03-03T15:43:40.184Z,51.53
2023-03-03T15:46:14.982Z,55.00
2023-03-03T15:48:53.861Z,49.93
2023-03-03T15:51:35.013Z,52.80
2023-03-03T15:54:28.704Z,56.97
2023-03-03T15:57:04.813Z,59.87
2023-03-03T15:59:48.167Z,53.90
2023-03-03T16:02:19.242Z,54.33
2023-03-03T16:05:07.728Z,48.40
2023-03-03T16:08:02.632Z,57.37
2023-03-03T16:10:47.621Z,54.90
2023-03-03T16:13:41.532Z,53.67
2023-03-03T16:16:30.268Z,55.37
2023-03-03T16:19:42.684Z,57.10
2023-03-03T16:22:38.200Z,54.47
2023-03-03T16:25:26.445Z,54.23
2023-03-03T16:28:05.791Z,58.00
2023-03-03T16:30:34.560Z,53.53
2023-03-03T16:33:19.636Z,57.97
2023-03-03T16:35:57.707Z,61.70
2023-03-03T16:39:04.610Z,52.10
2023-03-03T16:42:13.929Z,55.13
2023-03-03T16:45:12.775Z,55.97
2023-03-03T16:47:53.536Z,59.27
2023-03-03T16:51:01.743Z,64.70
2023-03-03T16:53:39.218Z,61.38
2023-03-03T16:56:21.747Z,59.95
2023-03-03T16:59:13.250Z,60.67
2023-03-03T17:01:55.115Z,58.50
2023-03-03T17:04:46.580Z,62.67
2023-03-03T17:07:31.829Z,62.47
2023-03-03T17:10:06.359Z,64.25
2023-03-03T17:12:45.899Z,62.03
2023-03-03T17:15:41.111Z,60.80
2023-03-03T17:18:38.983Z,63.30
2023-03-03T17:21:35.431Z,60.42
2023-03-03T17:24:20.947Z,62.63
2023-03-03T17:27:09.754Z,63.58
2023-03-03T17:29:54.783Z,63.47
2023-03-03T17:32:40.974Z,71.32
2023-03-03T17:35:14.621Z,59.25
2023-03-03T17:37:56.385Z,65.55
2023-03-03T17:40:38.208Z,68.68
2023-03-03T17:43:28.502Z,63.85
2023-03-03T17:45:59.729Z,71.50
2023-03-03T17:48:41.742Z,70.32
2023-03-03T17:51:45.854Z,65.93
2023-03-03T17:54:24.416Z,65.55
2023-03-03T17:57:00.133Z,70.90
2023-03-03T17:59:58.525Z,71.50
2023-03-03T18:03:15.957Z,65.85
2023-03-03T18:05:48.310Z,74.68
2023-03-03T18:08:32.893Z,68.28
2023-03-03T18:11:17.137Z,66.25
2023-03-03T18:14:12.771Z,69.97
2023-03-03T18:17:12.772Z,70.72
2023-03-03T18:19:59.172Z,63.63
2023-03-03T18:22:42.691Z,58.90
2023-03-03T18:25:13.008Z,72.75
2023-03-03T18:28:07.192Z,66.85
2023-03-03T18:30:57.601Z,73.38
2023-03-03T18:34:00.587Z,71.32
2023-03-03T18:36:27.585Z,69.85
2023-03-03T18:38:56.766Z,70.20
2023-03-03T18:41:28.189Z,68.43
2023-03-03T18:43:57.314Z,71.43
2023-03-03T18:46:24.379Z,73.35
2023-03-03T18:49:10.576Z,70.80
2023-03-03T18:51:40.290Z,67.63
2023-03-03T18:54:13.079Z,71.75
2023-03-03T18:56:58.406Z,68.93
2023-03-03T18:59:34.208Z,68.00
2023-03-03T19:02:13.230Z,70.25
2023-03-03T19:05:05.793Z,62.08
2023-03-03T19:08:01.984Z,73.30
2023-03-03T19:10:38.201Z,67.25
2023-03-03T19:13:29.354Z,70.55
2023-03-03T19:15:59.547Z,69.63
2023-03-03T19:18:28.523Z,85.95
2023-03-03T19:21:05.364Z,74.97
2023-03-03T19:23:50.757Z,79.18
2023-03-03T19:26:33.428Z,71.60
2023-03-03T19:29:15.309Z,69.07
2023-03-03T19:31:57.571Z,70.90
2023-03-03T19:34:32.857Z,70.72
2023-03-03T19:37:22.499Z,80.22
2023-03-03T19:40:21.761Z,77.03
2023-03-03T19:42:58.751Z,81.47
2023-03-03T19:45:49.847Z,73.47
2023-03-03T19:48:53.770Z,71.95
2023-03-03T19:51:52.429Z,78.35
2023-03-03T19:54:31.087Z,78.95
2023-03-03T19:57:02.106Z,74.88
2023-03-03T20:00:09.603Z,80.50
2023-03-03T20:03:07.101Z,70.85
2023-03-03T20:05:37.100Z,71.95
2023-03-03T20:08:25.769Z,82.47
2023-03-03T20:11:05.317Z,71.70
2023-03-03T20:13:48.690Z,75.50
2023-03-03T20:16:29.658Z,76.00
2023-03-03T20:19:30.335Z,73.38
2023-03-03T20:22:18.878Z,70.97
2023-03-03T20:25:00.578Z,65.85
2023-03-03T20:27:52.458Z,74.07
2023-03-03T20:30:46.873Z,78.45
2023-03-03T20:33:40.557Z,77.63
2023-03-03T20:36:11.576Z,79.45
2023-03-03T20:38:51.385Z,77.05
2023-03-03T20:41:33.134Z,75.28
2023-03-03T20:44:08.465Z,72.82
2023-03-03T20:46:47.211Z,80.57
2023-03-03T20:49:42.991Z,79.53
2023-03-03T20:52:43.511Z,75.00
2023-03-03T20:55:38.054Z,77.60
2023-03-03T20:58:44.484Z,68.63
2023-03-03T21:01:36.296Z,74.28
2023-03-03T21:04:24.840Z,71.95
2023-03-03T21:06:52.564Z,72.20
2023-03-03T21:09:30.675Z,77.07
2023-03-03T21:12:00.004Z,71.85
2023-03-03T21:14:34.371Z,84.68
2023-03-03T21:17:11.495Z,79.13
2023-03-03T21:19:38.519Z,81.15
2023-03-03T21:22:10.350Z,75.00
2023-03-03T21:24:47.871Z,81.78
2023-03-03T21:27:26.357Z,71.45
2023-03-03T21:30:22.663Z,80.63
2023-03-03T21:32:51.497Z,72.57
2023-03-03T21:35:23.465Z,85.53
2023-03-03T21:37:57.846Z,74.22
2023-03-03T21:40:29.048Z,86.95
2023-03-03T21:42:59.011Z,82.53
2023-03-03T21:45:26.274Z,79.25
2023-03-03T21:47:55.228Z,85.72
2023-03-03T21:50:22.661Z,77.68
2023-03-03T21:52:50.117Z,79.80
2023-03-03T21:55:17.264Z,73.22
2023-03-03T21:57:44.430Z,83.65
2023-03-03T22:03:25.387Z,72.50
2023-03-03T22:06:02.669Z,74.95
2023-03-03T22:08:29.900Z,77.90
2023-03-03T22:10:56.867Z,75.43
2023-03-03T22:13:26.489Z,84.50
2023-03-03T22:15:55.150Z,73.30
2023-03-03T22:18:22.444Z,78.82
2023-03-03T22:20:50.695Z,80.90
2023-03-03T22:23:19.020Z,72.90
2023-03-03T22:25:46.228Z,78.45
2023-03-03T22:28:13.437Z,70.80
2023-03-03T22:30:40.449Z,77.47
2023-03-03T22:33:07.690Z,79.22
2023-03-03T22:35:35.091Z,77.55
2023-03-03T22:38:03.494Z,79.25
2023-03-03T22:40:31.978Z,83.88
2023-03-03T22:43:02.392Z,88.85
2023-03-03T22:45:29.456Z,75.82
2023-03-03T22:47:56.416Z,83.22
2023-03-03T22:50:23.352Z,85.85
2023-03-03T22:52:50.399Z,86.35
2023-03-03T22:55:17.678Z,77.05
2023-03-03T22:57:47.365Z,80.35
2023-03-03T23:00:15.744Z,84.35
2023-03-03T23:02:43.171Z,83.75
2023-03-03T23:05:11.416Z,79.65
2023-03-03T23:07:40.305Z,79.85
2023-03-03T23:10:08.321Z,82.50
2023-03-03T23:12:35.665Z,88.25
2023-03-03T23:15:04.532Z,72.20
2023-03-03T23:17:36.916Z,78.90
2023-03-03T23:20:04.070Z,84.65
2023-03-03T23:22:31.197Z,86.20
2023-03-03T23:24:58.248Z,78.97
2023-03-03T23:27:25.279Z,78.55
2023-03-03T23:29:55.492Z,93.95
2023-03-03T23:32:26.737Z,88.95
2023-03-03T23:34:54.773Z,81.88
2023-03-03T23:37:21.943Z,85.15
2023-03-03T23:39:49.228Z,81.47
2023-03-03T23:42:16.123Z,71.30
2023-03-03T23:44:43.479Z,82.60
2023-03-03T23:47:10.425Z,77.07
2023-03-03T23:49:40.171Z,90.50
2023-03-03T23:52:09.818Z,82.10
2023-03-03T23:54:37.001Z,87.57
2023-03-03T23:57:04.135Z,83.65
2023-03-03T23:59:31.286Z,85.80
